createdAt,value
2022-08-03T00:02:02.123Z,67.04
2022-08-03T00:05:01.375Z,67.20
2022-08-03T00:07:58.826Z,67.37
2022-08-03T00:10:57.597Z,67.35
2022-08-03T00:13:55.051Z,67.46
2022-08-03T00:16:52.507Z,67.62
2022-08-03T00:19:49.987Z,67.70
2022-08-03T00:22:47.452Z,67.82
2022-08-03T00:25:44.929Z,67.89
2022-08-03T00:28:42.380Z,67.96
2022-08-03T00:31:52.856Z,68.01
2022-08-03T00:34:58.638Z,68.03
2022-08-03T00:37:56.649Z,68.05
2022-08-03T00:40:54.120Z,68.27
2022-08-03T00:43:51.602Z,68.36
2022-08-03T00:46:49.064Z,68.48
2022-08-03T00:49:46.541Z,68.58
2022-08-03T00:52:44.005Z,68.62
2022-08-03T00:55:41.481Z,68.61
2022-08-03T00:58:38.942Z,68.60
2022-08-03T01:01:36.551Z,68.68
2022-08-03T01:04:34.055Z,68.69
2022-08-03T01:07:31.550Z,68.74
2022-08-03T01:10:29.046Z,68.79
2022-08-03T01:14:01.080Z,68.79
2022-08-03T01:16:46.557Z,68.82
2022-08-03T01:19:44.986Z,68.95
2022-08-03T01:22:42.457Z,69.01
2022-08-03T01:25:39.958Z,68.97
2022-08-03T01:28:37.422Z,68.84
2022-08-03T01:31:35.235Z,68.90
2022-08-03T01:34:53.207Z,69.02
2022-08-03T01:37:50.687Z,69.05
2022-08-03T01:40:48.200Z,68.95
2022-08-03T01:44:27.005Z,68.86
2022-08-03T01:47:06.587Z,68.92
2022-08-03T01:50:04.057Z,69.04
2022-08-03T01:53:01.556Z,69.16
2022-08-03T01:55:59.100Z,69.21
2022-08-03T01:58:56.565Z,69.23
2022-08-03T02:02:28.591Z,69.18
2022-08-03T02:05:11.558Z,69.15
2022-08-03T02:08:09.066Z,69.32
2022-08-03T02:11:06.552Z,69.40
2022-08-03T02:14:04.043Z,69.47
2022-08-03T02:17:01.547Z,69.47
2022-08-03T02:19:59.031Z,69.51
2022-08-03T02:22:56.561Z,69.62
2022-08-03T02:25:54.069Z,69.78
2022-08-03T02:28:51.586Z,69.84
2022-08-03T02:31:49.081Z,69.88
2022-08-03T02:34:46.565Z,69.99
2022-08-03T02:37:45.067Z,70.10
2022-08-03T02:40:47.445Z,70.16
2022-08-03T02:44:05.522Z,70.26
2022-08-03T02:47:02.449Z,70.26
2022-08-03T02:49:59.944Z,70.37
2022-08-03T02:52:57.479Z,70.32
2022-08-03T02:55:54.960Z,70.47
2022-08-03T02:58:52.450Z,70.70
2022-08-03T03:01:49.974Z,70.86
2022-08-03T03:05:52.563Z,70.99
2022-08-03T03:08:04.937Z,71.03
2022-08-03T03:11:15.696Z,71.06
2022-08-03T03:14:13.518Z,71.17
2022-08-03T03:17:11.044Z,71.15
2022-08-03T03:20:08.521Z,71.31
2022-08-03T03:23:05.978Z,71.40
2022-08-03T03:26:03.413Z,71.53
2022-08-03T03:29:00.874Z,71.59
2022-08-03T03:31:58.421Z,71.72
2022-08-03T03:34:59.700Z,71.90
2022-08-03T03:37:57.193Z,71.96
2022-08-03T03:40:54.655Z,72.02
2022-08-03T03:43:52.148Z,72.12
2022-08-03T03:46:49.635Z,72.22
2022-08-03T03:49:47.094Z,72.39
2022-08-03T03:52:45.891Z,72.41
2022-08-03T03:55:59.179Z,72.49
2022-08-03T03:59:00.320Z,72.56
2022-08-03T04:01:59.146Z,72.77
2022-08-03T04:05:14.697Z,72.88
2022-08-03T04:08:30.079Z,72.86
2022-08-03T04:11:29.476Z,72.94
2022-08-03T04:14:28.972Z,73.05
2022-08-03T04:17:27.142Z,73.14
2022-08-03T04:20:24.620Z,73.11
2022-08-03T04:23:22.108Z,73.21
2022-08-03T04:26:19.569Z,73.29
2022-08-03T04:29:17.048Z,73.36
2022-08-03T04:32:14.609Z,73.48
2022-08-03T04:35:12.294Z,73.52
2022-08-03T04:38:09.769Z,73.62
2022-08-03T04:41:07.233Z,73.67
2022-08-03T04:44:04.759Z,73.70
2022-08-03T04:47:02.234Z,73.62
2022-08-03T04:49:59.713Z,73.40
2022-08-03T04:52:57.199Z,73.21
2022-08-03T04:55:54.655Z,73.40
2022-08-03T04:58:52.138Z,73.33
2022-08-03T05:01:49.710Z,72.76
2022-08-03T05:04:47.619Z,72.39
2022-08-03T05:07:45.556Z,72.19
2022-08-03T05:10:44.855Z,71.97
2022-08-03T05:13:42.313Z,71.82
2022-08-03T05:16:39.808Z,71.56
2022-08-03T05:19:37.299Z,71.31
2022-08-03T05:22:34.838Z,71.13
2022-08-03T05:25:32.346Z,70.94
2022-08-03T05:28:29.838Z,70.67
2022-08-03T05:31:27.332Z,70.38
2022-08-03T05:34:24.805Z,70.25
2022-08-03T05:37:22.294Z,69.75
2022-08-03T05:40:20.223Z,69.19
2022-08-03T05:43:18.170Z,68.77
2022-08-03T05:46:15.631Z,67.82
2022-08-03T05:49:14.467Z,67.10
2022-08-03T05:52:22.072Z,66.38
2022-08-03T05:55:19.863Z,66.22
2022-08-03T05:58:17.351Z,65.90
2022-08-03T06:01:14.981Z,65.45
2022-08-03T06:04:12.749Z,64.81
2022-08-03T06:07:10.261Z,64.52
2022-08-03T06:10:37.577Z,64.09
2022-08-03T06:13:25.178Z,63.57
2022-08-03T06:16:22.663Z,63.39
2022-08-03T06:19:20.168Z,63.35
2022-08-03T06:22:17.858Z,63.36
2022-08-03T06:25:16.951Z,62.95
2022-08-03T06:28:51.620Z,62.65
2022-08-03T06:31:36.808Z,62.50
2022-08-03T06:34:35.775Z,62.37
2022-08-03T06:37:33.409Z,61.81
2022-08-03T06:40:31.570Z,61.24
2022-08-03T06:43:29.033Z,60.91
2022-08-03T06:46:33.534Z,60.25
2022-08-03T06:49:31.101Z,59.90
2022-08-03T06:52:37.704Z,59.30
2022-08-03T06:55:36.215Z,58.27
2022-08-03T06:58:39.787Z,57.45
2022-08-03T07:01:37.318Z,57.32
2022-08-03T07:04:34.957Z,57.08
2022-08-03T07:07:32.475Z,56.17
2022-08-03T07:10:29.990Z,56.15
2022-08-03T07:13:27.585Z,54.80
2022-08-03T07:16:25.076Z,54.16
2022-08-03T07:19:22.556Z,53.94
2022-08-03T07:22:20.171Z,53.43
2022-08-03T07:25:17.641Z,52.91
2022-08-03T07:28:15.106Z,52.22
2022-08-03T07:31:12.593Z,51.58
2022-08-03T07:34:10.489Z,50.84
2022-08-03T07:37:08.217Z,50.47
2022-08-03T07:40:05.721Z,49.16
2022-08-03T07:43:03.926Z,48.36
2022-08-03T07:46:01.416Z,48.44
2022-08-03T07:48:58.909Z,47.73
2022-08-03T07:52:11.594Z,46.84
2022-08-03T07:55:09.156Z,46.27
2022-08-03T07:58:06.784Z,45.43
2022-08-03T08:01:04.353Z,44.55
2022-08-03T08:04:01.839Z,43.50
2022-08-03T08:06:59.296Z,42.09
2022-08-03T08:09:56.882Z,41.91
2022-08-03T08:12:54.344Z,41.65
2022-08-03T08:15:51.829Z,40.53
2022-08-03T08:18:49.321Z,39.84
2022-08-03T08:21:53.269Z,38.90
2022-08-03T08:24:59.632Z,38.93
2022-08-03T08:28:31.371Z,37.36
2022-08-03T08:31:17.658Z,37.12
2022-08-03T08:34:15.137Z,36.23
2022-08-03T08:37:12.630Z,35.87
2022-08-03T08:40:10.103Z,35.18
2022-08-03T08:43:07.737Z,35.11
2022-08-03T08:46:05.701Z,34.22
2022-08-03T08:49:04.554Z,33.98
2022-08-03T08:52:02.640Z,33.94
2022-08-03T08:55:00.306Z,32.58
2022-08-03T08:57:59.489Z,32.32
2022-08-03T09:00:57.185Z,32.19
2022-08-03T09:03:54.723Z,31.95
2022-08-03T09:07:17.599Z,31.84
2022-08-03T09:10:12.980Z,31.87
2022-08-03T09:13:11.125Z,30.53
2022-08-03T09:16:08.629Z,29.85
2022-08-03T09:19:06.201Z,29.69
2022-08-03T09:22:03.701Z,29.24
2022-08-03T09:25:22.798Z,28.81
2022-08-03T09:28:59.493Z,28.42
2022-08-03T09:31:36.652Z,28.42
2022-08-03T09:34:34.146Z,27.19
2022-08-03T09:38:12.554Z,27.01
2022-08-03T09:40:49.146Z,26.64
2022-08-03T09:43:47.666Z,26.38
2022-08-03T09:46:45.297Z,26.85
2022-08-03T09:49:47.727Z,26.19
2022-08-03T09:52:51.979Z,25.14
2022-08-03T09:56:33.879Z,25.02
2022-08-03T09:59:07.508Z,25.01
2022-08-03T10:02:05.041Z,24.24
2022-08-03T10:05:02.535Z,23.68
2022-08-03T10:08:00.041Z,22.85
2022-08-03T10:10:58.876Z,22.70
2022-08-03T10:13:58.043Z,22.65
2022-08-03T10:16:59.270Z,22.24
2022-08-03T10:19:59.529Z,21.45
2022-08-03T10:22:56.989Z,21.63
2022-08-03T10:25:54.542Z,20.96
2022-08-03T10:28:52.009Z,21.26
2022-08-03T10:31:57.405Z,20.45
2022-08-03T10:35:00.032Z,20.48
2022-08-03T10:37:58.902Z,20.46
2022-08-03T10:40:59.112Z,20.60
2022-08-03T10:43:57.116Z,20.45
2022-08-03T10:46:54.712Z,20.04
2022-08-03T10:49:52.220Z,19.42
2022-08-03T10:52:49.721Z,19.26
2022-08-03T10:56:05.793Z,19.18
2022-08-03T10:59:03.896Z,18.83
2022-08-03T11:02:01.539Z,19.15
2022-08-03T11:04:59.034Z,18.44
2022-08-03T11:07:56.534Z,18.76
2022-08-03T11:10:54.037Z,18.10
2022-08-03T11:13:51.541Z,18.12
2022-08-03T11:16:49.886Z,18.34
2022-08-03T11:19:56.782Z,18.26
2022-08-03T11:22:57.200Z,17.85
2022-08-03T11:25:55.438Z,17.82
2022-08-03T11:28:53.026Z,17.74
2022-08-03T11:31:51.663Z,17.87
2022-08-03T11:34:49.551Z,18.14
2022-08-03T11:38:02.456Z,17.49
2022-08-03T11:41:02.821Z,17.82
2022-08-03T11:44:00.280Z,17.48
2022-08-03T11:46:57.781Z,17.17
2022-08-03T11:49:55.252Z,16.68
2022-08-03T11:52:52.739Z,16.47
2022-08-03T11:55:50.262Z,16.85
2022-08-03T11:59:13.150Z,16.39
2022-08-03T12:02:05.232Z,17.20
2022-08-03T12:05:02.802Z,16.33
2022-08-03T12:08:05.026Z,17.00
2022-08-03T12:11:05.790Z,16.39
2022-08-03T12:14:45.123Z,16.61
2022-08-03T12:17:21.009Z,16.14
2022-08-03T12:20:18.853Z,16.07
2022-08-03T12:23:16.338Z,16.50
2022-08-03T12:26:13.783Z,16.13
2022-08-03T12:29:11.298Z,16.48
2022-08-03T12:32:09.863Z,16.27
2022-08-03T12:35:07.379Z,16.50
2022-08-03T12:38:04.848Z,16.46
2022-08-03T12:41:02.300Z,16.45
2022-08-03T12:44:00.101Z,16.81
2022-08-03T12:46:57.557Z,16.60
2022-08-03T12:49:55.052Z,16.93
2022-08-03T12:52:52.559Z,17.05
2022-08-03T12:56:04.248Z,16.81
2022-08-03T12:59:03.129Z,16.49
2022-08-03T13:02:00.661Z,16.44
2022-08-03T13:04:59.557Z,16.73
2022-08-03T13:07:57.586Z,16.78
2022-08-03T13:10:55.044Z,16.65
2022-08-03T13:13:52.507Z,16.97
2022-08-03T13:16:49.983Z,16.68
2022-08-03T13:19:47.482Z,16.95
2022-08-03T13:22:45.724Z,17.13
2022-08-03T13:25:55.675Z,17.15
2022-08-03T13:28:53.664Z,16.79
2022-08-03T13:31:51.403Z,16.38
2022-08-03T13:34:48.954Z,16.35
2022-08-03T13:37:49.000Z,16.37
2022-08-03T13:40:46.637Z,16.86
2022-08-03T13:43:47.710Z,17.37
2022-08-03T13:46:45.211Z,17.23
2022-08-03T13:49:42.682Z,17.65
2022-08-03T13:52:54.482Z,18.08
2022-08-03T13:55:51.948Z,18.03
2022-08-03T13:58:49.405Z,18.39
2022-08-03T14:01:55.293Z,18.43
2022-08-03T14:04:54.834Z,18.61
2022-08-03T14:07:52.308Z,18.38
2022-08-03T14:10:55.761Z,18.32
2022-08-03T14:13:53.223Z,18.59
2022-08-03T14:16:50.715Z,18.75
2022-08-03T14:19:54.151Z,18.71
2022-08-03T14:22:51.714Z,18.64
2022-08-03T14:25:51.571Z,18.71
2022-08-03T14:28:50.356Z,18.90
2022-08-03T14:32:11.895Z,19.18
2022-08-03T14:35:05.280Z,19.18
2022-08-03T14:38:02.771Z,19.21
2022-08-03T14:41:00.235Z,19.03
2022-08-03T14:44:01.310Z,19.10
2022-08-03T14:47:00.775Z,19.24
2022-08-03T14:50:30.493Z,19.48
2022-08-03T14:53:17.432Z,19.10
2022-08-03T14:56:14.880Z,19.26
2022-08-03T14:59:12.397Z,19.68
2022-08-03T15:02:15.962Z,19.39
2022-08-03T15:05:18.900Z,19.80
2022-08-03T15:08:16.418Z,19.67
2022-08-03T15:11:13.902Z,19.57
2022-08-03T15:14:13.493Z,19.93
2022-08-03T15:17:12.395Z,20.19
2022-08-03T15:20:22.499Z,20.24
2022-08-03T15:23:27.561Z,20.06
2022-08-03T15:26:33.903Z,20.27
2022-08-03T15:30:07.213Z,20.46
2022-08-03T15:32:51.505Z,20.49
2022-08-03T15:35:49.961Z,20.68
2022-08-03T15:38:47.595Z,20.58
2022-08-03T15:41:45.132Z,20.67
2022-08-03T15:44:42.904Z,20.92
2022-08-03T15:47:40.364Z,21.10
2022-08-03T15:50:37.837Z,21.13
2022-08-03T15:53:35.308Z,21.22
2022-08-03T15:56:32.778Z,21.47
2022-08-03T15:59:30.278Z,21.71
2022-08-03T16:02:27.804Z,21.83
2022-08-03T16:05:25.269Z,22.13
2022-08-03T16:08:22.753Z,22.05
2022-08-03T16:11:20.196Z,22.21
2022-08-03T16:14:34.311Z,22.44
2022-08-03T16:17:33.321Z,22.25
2022-08-03T16:20:34.371Z,23.14
2022-08-03T16:23:33.960Z,23.61
2022-08-03T16:26:32.328Z,23.52
2022-08-03T16:29:32.512Z,23.71
2022-08-03T16:32:29.961Z,23.96
2022-08-03T16:35:27.470Z,24.31
2022-08-03T16:38:24.956Z,24.49
2022-08-03T16:41:22.410Z,23.92
2022-08-03T16:44:19.914Z,23.96
2022-08-03T16:47:22.138Z,24.16
2022-08-03T16:50:20.506Z,24.47
2022-08-03T16:53:33.008Z,24.43
2022-08-03T16:56:31.337Z,24.70
2022-08-03T16:59:36.187Z,25.08
2022-08-03T17:02:34.111Z,25.42
2022-08-03T17:05:46.943Z,25.65
2022-08-03T17:08:55.497Z,25.50
2022-08-03T17:11:53.090Z,25.69
2022-08-03T17:14:50.597Z,25.92
2022-08-03T17:17:53.671Z,26.18
2022-08-03T17:20:53.480Z,26.14
2022-08-03T17:23:51.778Z,26.55
2022-08-03T17:26:50.209Z,26.71
2022-08-03T17:29:48.889Z,27.11
2022-08-03T17:32:56.623Z,27.48
2022-08-03T17:35:56.599Z,27.91
2022-08-03T17:38:56.170Z,28.14
2022-08-03T17:41:53.699Z,27.99
2022-08-03T17:44:51.436Z,28.93
2022-08-03T17:47:57.792Z,29.34
2022-08-03T17:50:55.611Z,29.77
2022-08-03T17:53:53.473Z,30.21
2022-08-03T17:56:50.974Z,30.90
2022-08-03T17:59:52.571Z,31.24
2022-08-03T18:03:08.208Z,31.42
2022-08-03T18:06:11.135Z,31.68
2022-08-03T18:10:03.353Z,32.12
2022-08-03T18:12:28.195Z,32.36
2022-08-03T18:15:26.585Z,32.79
2022-08-03T18:18:29.362Z,33.09
2022-08-03T18:22:02.252Z,33.57
2022-08-03T18:24:47.737Z,34.09
2022-08-03T18:27:47.690Z,34.74
2022-08-03T18:30:53.996Z,35.21
2022-08-03T18:37:10.250Z,35.96
2022-08-03T18:40:07.890Z,36.50
2022-08-03T18:43:08.834Z,36.86
2022-08-03T18:46:06.601Z,37.02
2022-08-03T18:49:08.137Z,37.38
2022-08-03T18:52:12.414Z,37.61
2022-08-03T18:58:28.192Z,38.14
2022-08-03T19:02:00.387Z,38.65
2022-08-03T19:04:45.199Z,38.78
2022-08-03T19:07:42.933Z,39.57
2022-08-03T19:11:00.569Z,39.60
2022-08-03T19:13:59.655Z,40.07
2022-08-03T19:16:57.923Z,40.65
2022-08-03T19:19:55.698Z,40.92
2022-08-03T19:22:53.838Z,41.14
2022-08-03T19:25:52.098Z,41.42
2022-08-03T19:28:53.933Z,41.63
2022-08-03T19:31:58.956Z,41.88
2022-08-03T19:34:57.759Z,41.95
2022-08-03T19:37:57.463Z,42.00
2022-08-03T19:40:59.699Z,41.99
2022-08-03T19:43:58.224Z,42.31
2022-08-03T19:46:56.153Z,42.78
2022-08-03T19:50:06.201Z,43.03
2022-08-03T19:53:11.749Z,43.11
2022-08-03T19:56:09.555Z,43.63
2022-08-03T19:59:07.441Z,43.71
2022-08-03T20:02:17.400Z,44.18
2022-08-03T20:05:23.727Z,44.50
2022-08-03T20:08:21.404Z,44.87
2022-08-03T20:11:19.018Z,45.06
2022-08-03T20:14:20.695Z,45.23
2022-08-03T20:17:55.868Z,45.43
2022-08-03T20:20:41.786Z,45.38
2022-08-03T20:24:01.568Z,45.67
2022-08-03T20:27:01.026Z,45.87
2022-08-03T20:30:06.381Z,46.17
2022-08-03T20:33:05.585Z,46.66
2022-08-03T20:36:03.507Z,47.00
2022-08-03T20:39:01.149Z,47.12
2022-08-03T20:42:05.197Z,47.17
2022-08-03T20:45:06.010Z,47.39
2022-08-03T20:48:04.515Z,47.38
2022-08-03T20:51:03.214Z,46.78
2022-08-03T20:54:03.024Z,47.75
2022-08-03T20:57:03.618Z,48.17
2022-08-03T21:00:04.589Z,48.49
2022-08-03T21:03:02.147Z,48.72
2022-08-03T21:05:59.679Z,48.85
2022-08-03T21:09:03.867Z,48.95
2022-08-03T21:12:01.791Z,49.20
2022-08-03T21:12:58.400Z,35.68
2022-08-03T21:13:09.559Z,37.79
2022-08-03T21:14:59.324Z,49.30
2022-08-03T21:17:56.801Z,49.37
2022-08-03T21:20:55.737Z,49.45
2022-08-03T21:23:53.311Z,49.74
2022-08-03T21:26:50.798Z,50.03
2022-08-03T21:29:52.867Z,50.32
2022-08-03T21:32:51.519Z,50.63
2022-08-03T21:35:49.062Z,50.81
2022-08-03T21:38:47.599Z,51.14
2022-08-03T21:41:54.337Z,51.27
2022-08-03T21:44:52.382Z,51.44
2022-08-03T21:47:49.886Z,51.63
2022-08-03T21:50:47.393Z,51.81
2022-08-03T21:54:04.006Z,51.73
2022-08-03T21:57:02.245Z,52.05
2022-08-03T21:59:59.770Z,52.31
2022-08-03T22:02:58.141Z,52.54
2022-08-03T22:06:02.454Z,52.57
2022-08-03T22:09:02.672Z,52.86
2022-08-03T22:12:00.215Z,53.05
2022-08-03T22:15:00.434Z,53.28
2022-08-03T22:17:59.000Z,53.09
2022-08-03T22:20:56.531Z,53.22
2022-08-03T22:23:54.901Z,53.27
2022-08-03T22:27:10.153Z,53.23
2022-08-03T22:30:07.615Z,53.28
2022-08-03T22:33:05.104Z,53.43
2022-08-03T22:36:06.148Z,53.29
2022-08-03T22:39:03.642Z,53.20
2022-08-03T22:42:01.147Z,53.19
2022-08-03T22:44:58.625Z,53.27
2022-08-03T22:47:56.124Z,53.33
2022-08-03T22:50:53.595Z,53.47
2022-08-03T22:53:51.100Z,53.70
2022-08-03T22:56:48.627Z,54.00
2022-08-03T22:59:47.446Z,54.16
2022-08-03T23:02:44.946Z,54.07
2022-08-03T23:06:01.866Z,53.97
2022-08-03T23:09:01.141Z,53.97
2022-08-03T23:11:58.645Z,54.09
2022-08-03T23:14:56.124Z,54.27
2022-08-03T23:17:58.074Z,54.57
2022-08-03T23:20:56.035Z,54.71
2022-08-03T23:23:53.531Z,54.89
2022-08-03T23:26:51.033Z,54.99
2022-08-03T23:29:48.564Z,55.26
2022-08-03T23:32:46.077Z,55.17
2022-08-03T23:36:29.739Z,55.19
2022-08-03T23:39:15.749Z,54.89
2022-08-03T23:42:13.277Z,55.02
2022-08-03T23:45:10.750Z,55.13
2022-08-03T23:48:08.274Z,55.00
2022-08-03T23:51:05.753Z,55.24
2022-08-03T23:54:03.262Z,55.41
2022-08-03T23:57:00.743Z,55.53
2022-08-03T23:59:58.248Z,55.70
